sensor_id;sensor_type;location;lat;lon;timestamp;P1;P2;P0
67892;PMS7003;54688;52.376;16.744;2023-02-01T00:01:55;1;1;
67892;PMS7003;54688;52.376;16.744;2023-02-01T00:04:57;4;1;
67892;PMS7003;54688;52.376;16.744;2023-02-01T00:07:59;1;1;
67892;PMS7003;54688;52.376;16.744;2023-02-01T00:11:03;2;1;
67892;PMS7003;54688;52.376;16.744;2023-02-01T00:14:06;3;1;
67892;PMS7003;54688;52.376;16.744;2023-02-01T00:17:09;5;2;
67892;PMS7003;54688;52.376;16.744;2023-02-01T00:20:11;5;1;
67892;PMS7003;54688;52.376;16.744;2023-02-01T00:23:13;6;2;
67892;PMS7003;54688;52.376;16.744;2023-02-01T00:26:17;4;2;
67892;PMS7003;54688;52.376;16.744;2023-02-01T00:29:20;4;1;
67892;PMS7003;54688;52.376;16.744;2023-02-01T00:32:22;6;1;
67892;PMS7003;54688;52.376;16.744;2023-02-01T00:35:24;1;1;
67892;PMS7003;54688;52.376;16.744;2023-02-01T00:38:26;8;1;
67892;PMS7003;54688;52.376;16.744;2023-02-01T00:41:29;3;1;
67892;PMS7003;54688;52.376;16.744;2023-02-01T00:44:38;8;2;
67892;PMS7003;54688;52.376;16.744;2023-02-01T00:47:40;3;1;
67892;PMS7003;54688;52.376;16.744;2023-02-01T00:50:43;3;1;
67892;PMS7003;54688;52.376;16.744;2023-02-01T00:53:45;1;1;
67892;PMS7003;54688;52.376;16.744;2023-02-01T00:56:47;4;2;
67892;PMS7003;54688;52.376;16.744;2023-02-01T00:59:50;5;2;
67892;PMS7003;54688;52.376;16.744;2023-02-01T01:02:52;3;1;
67892;PMS7003;54688;52.376;16.744;2023-02-01T01:05:56;5;1;
67892;PMS7003;54688;52.376;16.744;2023-02-01T01:09:00;2;1;
67892;PMS7003;54688;52.376;16.744;2023-02-01T01:12:03;4;2;
67892;PMS7003;54688;52.376;16.744;2023-02-01T01:15:07;3;1;
67892;PMS7003;54688;52.376;16.744;2023-02-01T01:18:09;1;1;
67892;PMS7003;54688;52.376;16.744;2023-02-01T01:21:13;2;0;
67892;PMS7003;54688;52.376;16.744;2023-02-01T01:24:16;6;1;
67892;PMS7003;54688;52.376;16.744;2023-02-01T01:27:18;1;1;
67892;PMS7003;54688;52.376;16.744;2023-02-01T01:30:20;2;0;
67892;PMS7003;54688;52.376;16.744;2023-02-01T01:33:22;4;0;
67892;PMS7003;54688;52.376;16.744;2023-02-01T01:36:25;2;1;
67892;PMS7003;54688;52.376;16.744;2023-02-01T01:39:29;2;0;
67892;PMS7003;54688;52.376;16.744;2023-02-01T01:42:37;0;0;
67892;PMS7003;54688;52.376;16.744;2023-02-01T01:45:38;0;0;
67892;PMS7003;54688;52.376;16.744;2023-02-01T01:48:40;5;1;
67892;PMS7003;54688;52.376;16.744;2023-02-01T01:51:45;1;0;
67892;PMS7003;54688;52.376;16.744;2023-02-01T01:54:50;4;1;
67892;PMS7003;54688;52.376;16.744;2023-02-01T01:57:57;0;0;
67892;PMS7003;54688;52.376;16.744;2023-02-01T02:01:01;3;2;
67892;PMS7003;54688;52.376;16.744;2023-02-01T02:04:03;2;0;
67892;PMS7003;54688;52.376;16.744;2023-02-01T02:07:09;5;1;
67892;PMS7003;54688;52.376;16.744;2023-02-01T02:10:14;2;1;
67892;PMS7003;54688;52.376;16.744;2023-02-01T02:13:17;7;1;
67892;PMS7003;54688;52.376;16.744;2023-02-01T02:16:30;1;0;
67892;PMS7003;54688;52.376;16.744;2023-02-01T02:25:37;4;1;
67892;PMS7003;54688;52.376;16.744;2023-02-01T02:29:05;1;1;
67892;PMS7003;54688;52.376;16.744;2023-02-01T02:37:16;3;1;
67892;PMS7003;54688;52.376;16.744;2023-02-01T02:40:28;5;1;
67892;PMS7003;54688;52.376;16.744;2023-02-01T02:43:42;3;0;
67892;PMS7003;54688;52.376;16.744;2023-02-01T02:46:47;1;1;
67892;PMS7003;54688;52.376;16.744;2023-02-01T02:49:54;1;1;
67892;PMS7003;54688;52.376;16.744;2023-02-01T02:53:02;2;2;
67892;PMS7003;54688;52.376;16.744;2023-02-01T02:56:08;4;2;
67892;PMS7003;54688;52.376;16.744;2023-02-01T02:59:14;1;1;
67892;PMS7003;54688;52.376;16.744;2023-02-01T03:02:19;2;1;
67892;PMS7003;54688;52.376;16.744;2023-02-01T03:05:22;3;1;
67892;PMS7003;54688;52.376;16.744;2023-02-01T03:08:25;3;2;
67892;PMS7003;54688;52.376;16.744;2023-02-01T03:11:28;3;2;
67892;PMS7003;54688;52.376;16.744;2023-02-01T03:14:32;7;1;
67892;PMS7003;54688;52.376;16.744;2023-02-01T03:17:39;1;1;
67892;PMS7003;54688;52.376;16.744;2023-02-01T03:20:46;4;2;
67892;PMS7003;54688;52.376;16.744;2023-02-01T03:23:53;3;1;
67892;PMS7003;54688;52.376;16.744;2023-02-01T03:27:00;1;1;
67892;PMS7003;54688;52.376;16.744;2023-02-01T03:30:09;3;1;
67892;PMS7003;54688;52.376;16.744;2023-02-01T03:33:14;6;1;
67892;PMS7003;54688;52.376;16.744;2023-02-01T03:36:22;5;2;
67892;PMS7003;54688;52.376;16.744;2023-02-01T03:39:29;3;1;
67892;PMS7003;54688;52.376;16.744;2023-02-01T03:42:34;4;1;
67892;PMS7003;54688;52.376;16.744;2023-02-01T03:45:41;2;2;
67892;PMS7003;54688;52.376;16.744;2023-02-01T03:48:44;4;1;
67892;PMS7003;54688;52.376;16.744;2023-02-01T03:51:48;4;0;
67892;PMS7003;54688;52.376;16.744;2023-02-01T03:54:53;2;1;
67892;PMS7003;54688;52.376;16.744;2023-02-01T03:57:59;2;1;
67892;PMS7003;54688;52.376;16.744;2023-02-01T04:01:02;3;1;
67892;PMS7003;54688;52.376;16.744;2023-02-01T04:04:04;4;2;
67892;PMS7003;54688;52.376;16.744;2023-02-01T04:07:06;6;3;
67892;PMS7003;54688;52.376;16.744;2023-02-01T04:10:09;5;1;
67892;PMS7003;54688;52.376;16.744;2023-02-01T04:13:12;2;2;
67892;PMS7003;54688;52.376;16.744;2023-02-01T04:16:15;4;2;
67892;PMS7003;54688;52.376;16.744;2023-02-01T04:19:17;3;2;
67892;PMS7003;54688;52.376;16.744;2023-02-01T04:22:19;1;1;
67892;PMS7003;54688;52.376;16.744;2023-02-01T04:25:21;4;1;
67892;PMS7003;54688;52.376;16.744;2023-02-01T04:28:23;2;1;
67892;PMS7003;54688;52.376;16.744;2023-02-01T04:31:25;4;2;
67892;PMS7003;54688;52.376;16.744;2023-02-01T04:34:27;0;0;
67892;PMS7003;54688;52.376;16.744;2023-02-01T04:37:31;1;1;
67892;PMS7003;54688;52.376;16.744;2023-02-01T04:40:33;2;1;
67892;PMS7003;54688;52.376;16.744;2023-02-01T04:43:37;2;2;
67892;PMS7003;54688;52.376;16.744;2023-02-01T04:46:39;1;1;
67892;PMS7003;54688;52.376;16.744;2023-02-01T04:49:41;1;1;
67892;PMS7003;54688;52.376;16.744;2023-02-01T04:52:44;1;1;
67892;PMS7003;54688;52.376;16.744;2023-02-01T04:55:48;4;1;
67892;PMS7003;54688;52.376;16.744;2023-02-01T04:58:51;2;1;
67892;PMS7003;54688;52.376;16.744;2023-02-01T05:01:53;1;1;
67892;PMS7003;54688;52.376;16.744;2023-02-01T05:04:55;2;1;
67892;PMS7003;54688;52.376;16.744;2023-02-01T05:07:58;4;2;
67892;PMS7003;54688;52.376;16.744;2023-02-01T05:11:00;4;2;
67892;PMS7003;54688;52.376;16.744;2023-02-01T05:14:02;2;1;
67892;PMS7003;54688;52.376;16.744;2023-02-01T05:17:04;3;1;
67892;PMS7003;54688;52.376;16.744;2023-02-01T05:20:07;1;1;
67892;PMS7003;54688;52.376;16.744;2023-02-01T05:23:10;1;1;
67892;PMS7003;54688;52.376;16.744;2023-02-01T05:26:12;1;1;
67892;PMS7003;54688;52.376;16.744;2023-02-01T05:29:15;2;1;
67892;PMS7003;54688;52.376;16.744;2023-02-01T05:32:18;4;1;
67892;PMS7003;54688;52.376;16.744;2023-02-01T05:35:20;3;1;
67892;PMS7003;54688;52.376;16.744;2023-02-01T05:38:22;1;1;
67892;PMS7003;54688;52.376;16.744;2023-02-01T05:41:24;6;2;
67892;PMS7003;54688;52.376;16.744;2023-02-01T05:44:27;4;1;
67892;PMS7003;54688;52.376;16.744;2023-02-01T05:47:29;8;1;
67892;PMS7003;54688;52.376;16.744;2023-02-01T05:50:31;3;1;
67892;PMS7003;54688;52.376;16.744;2023-02-01T05:53:33;4;2;
67892;PMS7003;54688;52.376;16.744;2023-02-01T05:56:35;5;2;
67892;PMS7003;54688;52.376;16.744;2023-02-01T05:59:37;1;0;
67892;PMS7003;54688;52.376;16.744;2023-02-01T06:02:39;2;2;
67892;PMS7003;54688;52.376;16.744;2023-02-01T06:05:43;4;1;
67892;PMS7003;54688;52.376;16.744;2023-02-01T06:08:45;2;2;
67892;PMS7003;54688;52.376;16.744;2023-02-01T06:11:46;5;2;
67892;PMS7003;54688;52.376;16.744;2023-02-01T06:14:50;2;2;
67892;PMS7003;54688;52.376;16.744;2023-02-01T06:17:52;7;4;
67892;PMS7003;54688;52.376;16.744;2023-02-01T06:20:54;5;2;
67892;PMS7003;54688;52.376;16.744;2023-02-01T06:23:56;4;2;
67892;PMS7003;54688;52.376;16.744;2023-02-01T06:26:59;7;3;
67892;PMS7003;54688;52.376;16.744;2023-02-01T06:30:01;4;2;
67892;PMS7003;54688;52.376;16.744;2023-02-01T06:33:02;4;3;
67892;PMS7003;54688;52.376;16.744;2023-02-01T06:36:07;5;3;
67892;PMS7003;54688;52.376;16.744;2023-02-01T06:39:09;4;2;
67892;PMS7003;54688;52.376;16.744;2023-02-01T06:42:11;5;3;
67892;PMS7003;54688;52.376;16.744;2023-02-01T06:45:13;6;2;
67892;PMS7003;54688;52.376;16.744;2023-02-01T06:48:15;2;2;
67892;PMS7003;54688;52.376;16.744;2023-02-01T06:51:20;4;4;
67892;PMS7003;54688;52.376;16.744;2023-02-01T06:54:22;5;2;
67892;PMS7003;54688;52.376;16.744;2023-02-01T06:57:24;6;2;
67892;PMS7003;54688;52.376;16.744;2023-02-01T07:00:26;1;1;
67892;PMS7003;54688;52.376;16.744;2023-02-01T07:03:27;7;3;
67892;PMS7003;54688;52.376;16.744;2023-02-01T07:06:29;3;3;
67892;PMS7003;54688;52.376;16.744;2023-02-01T07:09:31;7;3;
67892;PMS7003;54688;52.376;16.744;2023-02-01T07:12:33;9;5;
67892;PMS7003;54688;52.376;16.744;2023-02-01T07:15:36;5;3;
67892;PMS7003;54688;52.376;16.744;2023-02-01T07:18:38;5;2;
67892;PMS7003;54688;52.376;16.744;2023-02-01T07:21:40;4;1;
67892;PMS7003;54688;52.376;16.744;2023-02-01T07:24:42;8;3;
67892;PMS7003;54688;52.376;16.744;2023-02-01T07:27:44;4;1;
67892;PMS7003;54688;52.376;16.744;2023-02-01T07:30:46;8;3;
67892;PMS7003;54688;52.376;16.744;2023-02-01T07:33:49;5;2;
67892;PMS7003;54688;52.376;16.744;2023-02-01T07:36:51;2;2;
67892;PMS7003;54688;52.376;16.744;2023-02-01T07:39:53;4;3;
67892;PMS7003;54688;52.376;16.744;2023-02-01T07:42:55;6;3;
67892;PMS7003;54688;52.376;16.744;2023-02-01T07:45:57;6;3;
67892;PMS7003;54688;52.376;16.744;2023-02-01T07:48:59;4;4;
67892;PMS7003;54688;52.376;16.744;2023-02-01T07:52:01;3;3;
67892;PMS7003;54688;52.376;16.744;2023-02-01T07:55:05;4;4;
67892;PMS7003;54688;52.376;16.744;2023-02-01T07:58:07;3;3;
67892;PMS7003;54688;52.376;16.744;2023-02-01T08:01:13;2;2;
67892;PMS7003;54688;52.376;16.744;2023-02-01T08:04:16;6;4;
67892;PMS7003;54688;52.376;16.744;2023-02-01T08:07:18;4;4;
67892;PMS7003;54688;52.376;16.744;2023-02-01T08:10:20;6;5;
67892;PMS7003;54688;52.376;16.744;2023-02-01T08:13:22;5;4;
67892;PMS7003;54688;52.376;16.744;2023-02-01T08:16:25;11;3;
67892;PMS7003;54688;52.376;16.744;2023-02-01T08:19:27;8;4;
67892;PMS7003;54688;52.376;16.744;2023-02-01T08:22:31;5;3;
67892;PMS7003;54688;52.376;16.744;2023-02-01T08:25:34;6;5;
67892;PMS7003;54688;52.376;16.744;2023-02-01T08:28:37;5;4;
67892;PMS7003;54688;52.376;16.744;2023-02-01T08:31:39;6;6;
67892;PMS7003;54688;52.376;16.744;2023-02-01T08:34:41;4;3;
67892;PMS7003;54688;52.376;16.744;2023-02-01T08:37:43;13;5;
67892;PMS7003;54688;52.376;16.744;2023-02-01T08:40:45;7;3;
67892;PMS7003;54688;52.376;16.744;2023-02-01T08:43:48;7;4;
67892;PMS7003;54688;52.376;16.744;2023-02-01T08:46:49;7;6;
67892;PMS7003;54688;52.376;16.744;2023-02-01T08:49:51;6;4;
67892;PMS7003;54688;52.376;16.744;2023-02-01T08:52:54;7;5;
67892;PMS7003;54688;52.376;16.744;2023-02-01T08:55:56;6;4;
67892;PMS7003;54688;52.376;16.744;2023-02-01T08:59:00;6;5;
67892;PMS7003;54688;52.376;16.744;2023-02-01T09:02:03;8;7;
67892;PMS7003;54688;52.376;16.744;2023-02-01T09:05:07;5;5;
67892;PMS7003;54688;52.376;16.744;2023-02-01T09:08:09;8;4;
67892;PMS7003;54688;52.376;16.744;2023-02-01T09:11:13;6;4;
67892;PMS7003;54688;52.376;16.744;2023-02-01T09:14:15;7;4;
67892;PMS7003;54688;52.376;16.744;2023-02-01T09:17:17;5;3;
67892;PMS7003;54688;52.376;16.744;2023-02-01T09:20:19;3;3;
67892;PMS7003;54688;52.376;16.744;2023-02-01T09:23:21;5;4;
67892;PMS7003;54688;52.376;16.744;2023-02-01T09:26:23;6;5;
67892;PMS7003;54688;52.376;16.744;2023-02-01T09:29:25;11;8;
67892;PMS7003;54688;52.376;16.744;2023-02-01T09:32:27;9;7;
67892;PMS7003;54688;52.376;16.744;2023-02-01T09:35:31;7;6;
67892;PMS7003;54688;52.376;16.744;2023-02-01T09:38:33;9;6;
67892;PMS7003;54688;52.376;16.744;2023-02-01T09:41:41;4;4;
67892;PMS7003;54688;52.376;16.744;2023-02-01T09:44:57;6;5;
67892;PMS7003;54688;52.376;16.744;2023-02-01T09:48:12;8;5;
67892;PMS7003;54688;52.376;16.744;2023-02-01T09:51:18;9;6;
67892;PMS7003;54688;52.376;16.744;2023-02-01T09:54:22;8;7;
67892;PMS7003;54688;52.376;16.744;2023-02-01T09:57:30;8;5;
67892;PMS7003;54688;52.376;16.744;2023-02-01T10:00:35;5;5;
67892;PMS7003;54688;52.376;16.744;2023-02-01T10:03:38;6;6;
67892;PMS7003;54688;52.376;16.744;2023-02-01T10:06:47;7;4;
67892;PMS7003;54688;52.376;16.744;2023-02-01T10:09:58;6;4;
67892;PMS7003;54688;52.376;16.744;2023-02-01T10:13:12;5;4;
67892;PMS7003;54688;52.376;16.744;2023-02-01T10:16:26;5;5;
67892;PMS7003;54688;52.376;16.744;2023-02-01T10:19:39;7;6;
67892;PMS7003;54688;52.376;16.744;2023-02-01T10:22:52;6;6;
67892;PMS7003;54688;52.376;16.744;2023-02-01T10:26:00;6;4;
67892;PMS7003;54688;52.376;16.744;2023-02-01T10:29:14;10;6;
67892;PMS7003;54688;52.376;16.744;2023-02-01T10:32:20;10;6;
67892;PMS7003;54688;52.376;16.744;2023-02-01T10:35:27;11;8;
67892;PMS7003;54688;52.376;16.744;2023-02-01T10:38:31;10;7;
67892;PMS7003;54688;52.376;16.744;2023-02-01T10:41:36;10;8;
67892;PMS7003;54688;52.376;16.744;2023-02-01T10:44:42;10;8;
67892;PMS7003;54688;52.376;16.744;2023-02-01T10:47:46;11;9;
67892;PMS7003;54688;52.376;16.744;2023-02-01T10:50:51;8;7;
67892;PMS7003;54688;52.376;16.744;2023-02-01T10:53:58;6;4;
67892;PMS7003;54688;52.376;16.744;2023-02-01T10:57:01;6;5;
67892;PMS7003;54688;52.376;16.744;2023-02-01T11:00:19;6;6;
67892;PMS7003;54688;52.376;16.744;2023-02-01T11:03:32;8;6;
67892;PMS7003;54688;52.376;16.744;2023-02-01T11:06:36;5;4;
67892;PMS7003;54688;52.376;16.744;2023-02-01T11:09:40;7;7;
67892;PMS7003;54688;52.376;16.744;2023-02-01T11:12:53;10;7;
67892;PMS7003;54688;52.376;16.744;2023-02-01T11:18:54;10;7;
67892;PMS7003;54688;52.376;16.744;2023-02-01T11:21:59;6;4;
67892;PMS7003;54688;52.376;16.744;2023-02-01T11:25:08;7;6;
67892;PMS7003;54688;52.376;16.744;2023-02-01T11:28:10;9;5;
67892;PMS7003;54688;52.376;16.744;2023-02-01T11:31:13;13;6;
67892;PMS7003;54688;52.376;16.744;2023-02-01T11:34:18;11;7;
67892;PMS7003;54688;52.376;16.744;2023-02-01T11:37:26;9;7;
67892;PMS7003;54688;52.376;16.744;2023-02-01T11:40:36;12;8;
67892;PMS7003;54688;52.376;16.744;2023-02-01T11:43:51;7;6;
67892;PMS7003;54688;52.376;16.744;2023-02-01T11:50:15;7;7;
67892;PMS7003;54688;52.376;16.744;2023-02-01T11:53:25;8;7;
67892;PMS7003;54688;52.376;16.744;2023-02-01T11:56:33;8;7;
67892;PMS7003;54688;52.376;16.744;2023-02-01T11:59:52;5;5;
67892;PMS7003;54688;52.376;16.744;2023-02-01T12:03:10;11;5;
67892;PMS7003;54688;52.376;16.744;2023-02-01T12:06:18;6;5;
67892;PMS7003;54688;52.376;16.744;2023-02-01T12:09:35;6;5;
67892;PMS7003;54688;52.376;16.744;2023-02-01T12:12:46;5;5;
67892;PMS7003;54688;52.376;16.744;2023-02-01T12:16:02;6;6;
67892;PMS7003;54688;52.376;16.744;2023-02-01T12:19:22;3;3;
67892;PMS7003;54688;52.376;16.744;2023-02-01T12:22:35;6;5;
67892;PMS7003;54688;52.376;16.744;2023-02-01T12:25:57;2;2;
67892;PMS7003;54688;52.376;16.744;2023-02-01T12:29:11;3;3;
67892;PMS7003;54688;52.376;16.744;2023-02-01T12:32:41;3;3;
67892;PMS7003;54688;52.376;16.744;2023-02-01T12:38:51;4;4;
67892;PMS7003;54688;52.376;16.744;2023-02-01T12:44:56;2;2;
67892;PMS7003;54688;52.376;16.744;2023-02-01T12:51:04;1;1;
67892;PMS7003;54688;52.376;16.744;2023-02-01T12:54:14;4;2;
67892;PMS7003;54688;52.376;16.744;2023-02-01T12:57:26;4;2;
67892;PMS7003;54688;52.376;16.744;2023-02-01T13:00:32;4;2;
67892;PMS7003;54688;52.376;16.744;2023-02-01T13:03:38;3;3;
67892;PMS7003;54688;52.376;16.744;2023-02-01T13:06:46;2;2;
67892;PMS7003;54688;52.376;16.744;2023-02-01T13:09:53;4;3;
67892;PMS7003;54688;52.376;16.744;2023-02-01T13:13:00;1;1;
67892;PMS7003;54688;52.376;16.744;2023-02-01T13:16:08;2;2;
67892;PMS7003;54688;52.376;16.744;2023-02-01T13:19:16;2;2;
67892;PMS7003;54688;52.376;16.744;2023-02-01T13:22:22;3;2;
67892;PMS7003;54688;52.376;16.744;2023-02-01T13:25:31;5;1;
67892;PMS7003;54688;52.376;16.744;2023-02-01T13:28:40;7;3;
67892;PMS7003;54688;52.376;16.744;2023-02-01T13:31:56;1;1;
67892;PMS7003;54688;52.376;16.744;2023-02-01T13:35:13;2;1;
67892;PMS7003;54688;52.376;16.744;2023-02-01T13:38:40;5;3;
67892;PMS7003;54688;52.376;16.744;2023-02-01T13:41:52;5;2;
67892;PMS7003;54688;52.376;16.744;2023-02-01T13:44:58;3;3;
67892;PMS7003;54688;52.376;16.744;2023-02-01T13:48:04;3;3;
67892;PMS7003;54688;52.376;16.744;2023-02-01T13:51:07;2;2;
67892;PMS7003;54688;52.376;16.744;2023-02-01T13:54:25;4;2;
67892;PMS7003;54688;52.376;16.744;2023-02-01T13:57:35;3;2;
67892;PMS7003;54688;52.376;16.744;2023-02-01T14:00:39;2;2;
67892;PMS7003;54688;52.376;16.744;2023-02-01T14:09:41;2;2;
67892;PMS7003;54688;52.376;16.744;2023-02-01T14:12:47;4;2;
67892;PMS7003;54688;52.376;16.744;2023-02-01T14:16:21;5;4;
67892;PMS7003;54688;52.376;16.744;2023-02-01T14:22:33;10;4;
67892;PMS7003;54688;52.376;16.744;2023-02-01T14:25:35;4;3;
67892;PMS7003;54688;52.376;16.744;2023-02-01T14:28:42;6;4;
67892;PMS7003;54688;52.376;16.744;2023-02-01T14:31:52;8;4;
67892;PMS7003;54688;52.376;16.744;2023-02-01T14:35:24;3;3;
67892;PMS7003;54688;52.376;16.744;2023-02-01T14:38:27;4;3;
67892;PMS7003;54688;52.376;16.744;2023-02-01T14:44:32;3;3;
67892;PMS7003;54688;52.376;16.744;2023-02-01T14:47:36;5;4;
67892;PMS7003;54688;52.376;16.744;2023-02-01T14:50:39;7;3;
67892;PMS7003;54688;52.376;16.744;2023-02-01T14:53:45;4;3;
67892;PMS7003;54688;52.376;16.744;2023-02-01T14:56:47;12;7;
67892;PMS7003;54688;52.376;16.744;2023-02-01T14:59:55;8;6;
67892;PMS7003;54688;52.376;16.744;2023-02-01T15:03:30;13;8;
67892;PMS7003;54688;52.376;16.744;2023-02-01T15:06:38;23;18;
67892;PMS7003;54688;52.376;16.744;2023-02-01T15:09:43;10;8;
67892;PMS7003;54688;52.376;16.744;2023-02-01T15:12:46;12;10;
67892;PMS7003;54688;52.376;16.744;2023-02-01T15:16:07;10;8;
67892;PMS7003;54688;52.376;16.744;2023-02-01T15:19:13;20;14;
67892;PMS7003;54688;52.376;16.744;2023-02-01T15:25:19;13;8;
67892;PMS7003;54688;52.376;16.744;2023-02-01T15:28:23;8;7;
67892;PMS7003;54688;52.376;16.744;2023-02-01T15:31:34;17;14;
67892;PMS7003;54688;52.376;16.744;2023-02-01T15:34:45;8;7;
67892;PMS7003;54688;52.376;16.744;2023-02-01T15:37:47;8;4;
67892;PMS7003;54688;52.376;16.744;2023-02-01T15:40:54;5;5;
67892;PMS7003;54688;52.376;16.744;2023-02-01T15:44:05;8;8;
67892;PMS7003;54688;52.376;16.744;2023-02-01T15:47:16;6;4;
67892;PMS7003;54688;52.376;16.744;2023-02-01T15:50:20;9;7;
67892;PMS7003;54688;52.376;16.744;2023-02-01T15:53:24;6;4;
67892;PMS7003;54688;52.376;16.744;2023-02-01T15:56:33;4;4;
67892;PMS7003;54688;52.376;16.744;2023-02-01T15:59:41;8;4;
67892;PMS7003;54688;52.376;16.744;2023-02-01T16:02:51;6;5;
67892;PMS7003;54688;52.376;16.744;2023-02-01T16:05:55;8;5;
67892;PMS7003;54688;52.376;16.744;2023-02-01T16:09:02;11;5;
67892;PMS7003;54688;52.376;16.744;2023-02-01T16:12:23;7;6;
67892;PMS7003;54688;52.376;16.744;2023-02-01T16:15:28;6;6;
67892;PMS7003;54688;52.376;16.744;2023-02-01T16:18:30;7;7;
67892;PMS7003;54688;52.376;16.744;2023-02-01T16:21:33;5;4;
67892;PMS7003;54688;52.376;16.744;2023-02-01T16:24:35;11;8;
67892;PMS7003;54688;52.376;16.744;2023-02-01T16:27:37;16;13;
67892;PMS7003;54688;52.376;16.744;2023-02-01T16:30:41;18;18;
67892;PMS7003;54688;52.376;16.744;2023-02-01T16:33:43;24;21;
67892;PMS7003;54688;52.376;16.744;2023-02-01T16:36:47;19;16;
67892;PMS7003;54688;52.376;16.744;2023-02-01T16:39:49;16;14;
67892;PMS7003;54688;52.376;16.744;2023-02-01T16:45:53;17;15;
67892;PMS7003;54688;52.376;16.744;2023-02-01T16:48:57;8;7;
67892;PMS7003;54688;52.376;16.744;2023-02-01T16:52:00;15;11;
67892;PMS7003;54688;52.376;16.744;2023-02-01T16:55:09;18;11;
67892;PMS7003;54688;52.376;16.744;2023-02-01T16:58:15;10;10;
67892;PMS7003;54688;52.376;16.744;2023-02-01T17:01:18;19;13;
67892;PMS7003;54688;52.376;16.744;2023-02-01T17:04:21;18;12;
67892;PMS7003;54688;52.376;16.744;2023-02-01T17:07:23;24;17;
67892;PMS7003;54688;52.376;16.744;2023-02-01T17:10:26;23;17;
67892;PMS7003;54688;52.376;16.744;2023-02-01T17:13:28;18;15;
67892;PMS7003;54688;52.376;16.744;2023-02-01T17:16:31;20;11;
67892;PMS7003;54688;52.376;16.744;2023-02-01T17:19:33;11;9;
67892;PMS7003;54688;52.376;16.744;2023-02-01T17:22:35;15;11;
67892;PMS7003;54688;52.376;16.744;2023-02-01T17:25:37;11;11;
67892;PMS7003;54688;52.376;16.744;2023-02-01T17:28:40;10;8;
67892;PMS7003;54688;52.376;16.744;2023-02-01T17:31:44;16;13;
67892;PMS7003;54688;52.376;16.744;2023-02-01T17:34:47;15;11;
67892;PMS7003;54688;52.376;16.744;2023-02-01T17:37:49;9;8;
67892;PMS7003;54688;52.376;16.744;2023-02-01T17:40:52;9;8;
67892;PMS7003;54688;52.376;16.744;2023-02-01T17:43:54;9;6;
67892;PMS7003;54688;52.376;16.744;2023-02-01T17:46:57;8;8;
67892;PMS7003;54688;52.376;16.744;2023-02-01T17:49:59;8;6;
67892;PMS7003;54688;52.376;16.744;2023-02-01T17:53:01;12;9;
67892;PMS7003;54688;52.376;16.744;2023-02-01T17:56:05;15;10;
67892;PMS7003;54688;52.376;16.744;2023-02-01T17:59:08;15;13;
67892;PMS7003;54688;52.376;16.744;2023-02-01T18:02:17;15;14;
67892;PMS7003;54688;52.376;16.744;2023-02-01T18:05:23;14;14;
67892;PMS7003;54688;52.376;16.744;2023-02-01T18:08:29;6;6;
67892;PMS7003;54688;52.376;16.744;2023-02-01T18:11:32;9;9;
67892;PMS7003;54688;52.376;16.744;2023-02-01T18:14:33;5;5;
67892;PMS7003;54688;52.376;16.744;2023-02-01T18:17:35;9;8;
67892;PMS7003;54688;52.376;16.744;2023-02-01T18:20:39;11;9;
67892;PMS7003;54688;52.376;16.744;2023-02-01T18:23:42;11;9;
67892;PMS7003;54688;52.376;16.744;2023-02-01T18:26:46;19;14;
67892;PMS7003;54688;52.376;16.744;2023-02-01T18:29:48;15;13;
67892;PMS7003;54688;52.376;16.744;2023-02-01T18:32:50;15;14;
67892;PMS7003;54688;52.376;16.744;2023-02-01T18:35:51;16;11;
67892;PMS7003;54688;52.376;16.744;2023-02-01T18:38:54;9;9;
67892;PMS7003;54688;52.376;16.744;2023-02-01T18:41:57;11;8;
67892;PMS7003;54688;52.376;16.744;2023-02-01T18:45:00;11;8;
67892;PMS7003;54688;52.376;16.744;2023-02-01T18:48:03;12;10;
67892;PMS7003;54688;52.376;16.744;2023-02-01T18:51:08;21;14;
67892;PMS7003;54688;52.376;16.744;2023-02-01T18:54:11;32;28;
67892;PMS7003;54688;52.376;16.744;2023-02-01T18:57:13;16;11;
67892;PMS7003;54688;52.376;16.744;2023-02-01T19:00:17;19;13;
67892;PMS7003;54688;52.376;16.744;2023-02-01T19:03:19;11;11;
67892;PMS7003;54688;52.376;16.744;2023-02-01T19:06:21;12;10;
67892;PMS7003;54688;52.376;16.744;2023-02-01T19:09:23;10;10;
67892;PMS7003;54688;52.376;16.744;2023-02-01T19:12:25;12;11;
67892;PMS7003;54688;52.376;16.744;2023-02-01T19:18:26;7;7;
67892;PMS7003;54688;52.376;16.744;2023-02-01T19:24:28;10;7;
67892;PMS7003;54688;52.376;16.744;2023-02-01T19:27:31;13;10;
67892;PMS7003;54688;52.376;16.744;2023-02-01T19:30:33;10;8;
67892;PMS7003;54688;52.376;16.744;2023-02-01T19:36:35;13;11;
67892;PMS7003;54688;52.376;16.744;2023-02-01T19:39:37;12;10;
67892;PMS7003;54688;52.376;16.744;2023-02-01T19:45:39;12;7;
67892;PMS7003;54688;52.376;16.744;2023-02-01T19:48:41;7;7;
67892;PMS7003;54688;52.376;16.744;2023-02-01T19:51:43;10;9;
67892;PMS7003;54688;52.376;16.744;2023-02-01T19:54:46;4;4;
67892;PMS7003;54688;52.376;16.744;2023-02-01T19:57:49;9;9;
67892;PMS7003;54688;52.376;16.744;2023-02-01T20:00:52;11;7;
67892;PMS7003;54688;52.376;16.744;2023-02-01T20:03:55;9;7;
67892;PMS7003;54688;52.376;16.744;2023-02-01T20:06:57;8;5;
67892;PMS7003;54688;52.376;16.744;2023-02-01T20:09:59;16;11;
67892;PMS7003;54688;52.376;16.744;2023-02-01T20:13:01;6;6;
67892;PMS7003;54688;52.376;16.744;2023-02-01T20:16:04;7;4;
67892;PMS7003;54688;52.376;16.744;2023-02-01T20:19:06;10;7;
67892;PMS7003;54688;52.376;16.744;2023-02-01T20:22:09;12;10;
67892;PMS7003;54688;52.376;16.744;2023-02-01T20:25:12;9;7;
67892;PMS7003;54688;52.376;16.744;2023-02-01T20:28:14;12;7;
67892;PMS7003;54688;52.376;16.744;2023-02-01T20:31:16;6;6;
67892;PMS7003;54688;52.376;16.744;2023-02-01T20:34:18;5;3;
67892;PMS7003;54688;52.376;16.744;2023-02-01T20:37:20;5;4;
67892;PMS7003;54688;52.376;16.744;2023-02-01T20:40:22;7;4;
67892;PMS7003;54688;52.376;16.744;2023-02-01T20:43:24;7;4;
67892;PMS7003;54688;52.376;16.744;2023-02-01T20:46:27;6;5;
67892;PMS7003;54688;52.376;16.744;2023-02-01T20:49:29;5;5;
67892;PMS7003;54688;52.376;16.744;2023-02-01T20:52:31;4;4;
67892;PMS7003;54688;52.376;16.744;2023-02-01T20:55:33;5;3;
67892;PMS7003;54688;52.376;16.744;2023-02-01T20:58:35;6;4;
67892;PMS7003;54688;52.376;16.744;2023-02-01T21:01:37;4;4;
67892;PMS7003;54688;52.376;16.744;2023-02-01T21:07:38;6;4;
67892;PMS7003;54688;52.376;16.744;2023-02-01T21:10:40;6;4;
67892;PMS7003;54688;52.376;16.744;2023-02-01T21:16:41;3;3;
67892;PMS7003;54688;52.376;16.744;2023-02-01T21:22:43;4;3;
67892;PMS7003;54688;52.376;16.744;2023-02-01T21:25:45;3;1;
67892;PMS7003;54688;52.376;16.744;2023-02-01T21:28:48;2;1;
67892;PMS7003;54688;52.376;16.744;2023-02-01T21:31:50;4;2;
67892;PMS7003;54688;52.376;16.744;2023-02-01T21:34:52;3;3;
67892;PMS7003;54688;52.376;16.744;2023-02-01T21:37:54;3;2;
67892;PMS7003;54688;52.376;16.744;2023-02-01T21:40:56;4;2;
67892;PMS7003;54688;52.376;16.744;2023-02-01T21:43:58;3;2;
67892;PMS7003;54688;52.376;16.744;2023-02-01T21:47:00;2;2;